sensor_id;sensor_type;location;lat;lon;timestamp;P1;durP1;ratioP1;P2;durP2;ratioP2
75358;SDS011;64046;51.978;5.934;2023-03-01T00:01:56;4.43;;;2.78;;
75358;SDS011;64046;51.978;5.934;2023-03-01T00:04:28;4.95;;;3.80;;
75358;SDS011;64046;51.978;5.934;2023-03-01T00:06:57;8.02;;;3.33;;
75358;SDS011;64046;51.978;5.934;2023-03-01T00:09:26;4.55;;;2.65;;
75358;SDS011;64046;51.978;5.934;2023-03-01T00:11:56;3.47;;;2.53;;
75358;SDS011;64046;51.978;5.934;2023-03-01T00:14:25;3.78;;;2.88;;
75358;SDS011;64046;51.978;5.934;2023-03-01T00:16:54;4.68;;;2.95;;
75358;SDS011;64046;51.978;5.934;2023-03-01T00:19:24;7.10;;;3.03;;
75358;SDS011;64046;51.978;5.934;2023-03-01T00:21:56;4.75;;;3.17;;
75358;SDS011;64046;51.978;5.934;2023-03-01T00:24:25;4.57;;;2.85;;
75358;SDS011;64046;51.978;5.934;2023-03-01T00:26:54;4.57;;;2.60;;
75358;SDS011;64046;51.978;5.934;2023-03-01T00:29:26;5.32;;;3.22;;
75358;SDS011;64046;51.978;5.934;2023-03-01T00:31:55;6.53;;;3.25;;
75358;SDS011;64046;51.978;5.934;2023-03-01T00:34:26;4.45;;;3.10;;
75358;SDS011;64046;51.978;5.934;2023-03-01T00:36:58;4.70;;;3.00;;
75358;SDS011;64046;51.978;5.934;2023-03-01T00:39:31;4.57;;;2.80;;
75358;SDS011;64046;51.978;5.934;2023-03-01T00:42:00;5.38;;;3.47;;
75358;SDS011;64046;51.978;5.934;2023-03-01T00:44:30;5.40;;;3.13;;
75358;SDS011;64046;51.978;5.934;2023-03-01T00:47:00;5.15;;;3.17;;
75358;SDS011;64046;51.978;5.934;2023-03-01T00:49:31;6.10;;;2.70;;
75358;SDS011;64046;51.978;5.934;2023-03-01T00:52:03;4.65;;;3.30;;
75358;SDS011;64046;51.978;5.934;2023-03-01T00:54:32;4.30;;;3.28;;
75358;SDS011;64046;51.978;5.934;2023-03-01T00:57:01;6.68;;;3.78;;
75358;SDS011;64046;51.978;5.934;2023-03-01T00:59:30;8.18;;;3.42;;
75358;SDS011;64046;51.978;5.934;2023-03-01T01:02:00;3.47;;;2.65;;
75358;SDS011;64046;51.978;5.934;2023-03-01T01:04:30;5.65;;;3.65;;
75358;SDS011;64046;51.978;5.934;2023-03-01T01:06:59;6.68;;;3.17;;
75358;SDS011;64046;51.978;5.934;2023-03-01T01:09:30;5.63;;;3.47;;
75358;SDS011;64046;51.978;5.934;2023-03-01T01:12:00;5.22;;;3.33;;
75358;SDS011;64046;51.978;5.934;2023-03-01T01:14:29;5.60;;;3.53;;
75358;SDS011;64046;51.978;5.934;2023-03-01T01:16:59;4.47;;;3.13;;
75358;SDS011;64046;51.978;5.934;2023-03-01T01:19:28;5.97;;;3.60;;
75358;SDS011;64046;51.978;5.934;2023-03-01T01:21:58;7.13;;;3.60;;
75358;SDS011;64046;51.978;5.934;2023-03-01T01:24:27;6.22;;;4.00;;
75358;SDS011;64046;51.978;5.934;2023-03-01T01:26:59;5.00;;;3.55;;
75358;SDS011;64046;51.978;5.934;2023-03-01T01:29:28;6.55;;;4.32;;
75358;SDS011;64046;51.978;5.934;2023-03-01T01:31:57;5.25;;;3.65;;
75358;SDS011;64046;51.978;5.934;2023-03-01T01:34:26;7.88;;;4.65;;
75358;SDS011;64046;51.978;5.934;2023-03-01T01:36:55;6.03;;;4.30;;
75358;SDS011;64046;51.978;5.934;2023-03-01T01:39:28;8.45;;;4.45;;
75358;SDS011;64046;51.978;5.934;2023-03-01T01:42:00;7.43;;;4.28;;
75358;SDS011;64046;51.978;5.934;2023-03-01T01:44:29;6.68;;;4.28;;
75358;SDS011;64046;51.978;5.934;2023-03-01T01:46:59;8.98;;;4.63;;
75358;SDS011;64046;51.978;5.934;2023-03-01T01:49:31;6.85;;;4.43;;
75358;SDS011;64046;51.978;5.934;2023-03-01T01:52:05;7.68;;;4.40;;
75358;SDS011;64046;51.978;5.934;2023-03-01T01:54:39;9.13;;;4.43;;
75358;SDS011;64046;51.978;5.934;2023-03-01T01:57:16;7.90;;;4.55;;
75358;SDS011;64046;51.978;5.934;2023-03-01T01:59:51;8.02;;;5.03;;
75358;SDS011;64046;51.978;5.934;2023-03-01T02:02:23;8.13;;;4.43;;
75358;SDS011;64046;51.978;5.934;2023-03-01T02:04:55;7.47;;;4.32;;
75358;SDS011;64046;51.978;5.934;2023-03-01T02:07:36;7.88;;;4.63;;
75358;SDS011;64046;51.978;5.934;2023-03-01T02:10:08;8.07;;;4.60;;
75358;SDS011;64046;51.978;5.934;2023-03-01T02:12:40;7.00;;;4.43;;
75358;SDS011;64046;51.978;5.934;2023-03-01T02:15:10;6.20;;;4.45;;
75358;SDS011;64046;51.978;5.934;2023-03-01T02:17:39;7.82;;;4.68;;
75358;SDS011;64046;51.978;5.934;2023-03-01T02:20:13;7.47;;;5.53;;
75358;SDS011;64046;51.978;5.934;2023-03-01T02:22:51;9.55;;;5.47;;
75358;SDS011;64046;51.978;5.934;2023-03-01T02:25:33;6.28;;;4.57;;
75358;SDS011;64046;51.978;5.934;2023-03-01T02:28:08;6.38;;;4.43;;
75358;SDS011;64046;51.978;5.934;2023-03-01T02:30:44;6.40;;;4.10;;
75358;SDS011;64046;51.978;5.934;2023-03-01T02:33:28;7.05;;;4.80;;
75358;SDS011;64046;51.978;5.934;2023-03-01T02:35:58;5.28;;;4.05;;
75358;SDS011;64046;51.978;5.934;2023-03-01T02:38:29;8.43;;;4.22;;
75358;SDS011;64046;51.978;5.934;2023-03-01T02:40:59;6.35;;;4.75;;
75358;SDS011;64046;51.978;5.934;2023-03-01T02:43:32;6.50;;;4.07;;
75358;SDS011;64046;51.978;5.934;2023-03-01T02:46:08;7.50;;;4.53;;
75358;SDS011;64046;51.978;5.934;2023-03-01T02:48:43;7.22;;;4.07;;
75358;SDS011;64046;51.978;5.934;2023-03-01T02:51:25;7.43;;;4.78;;
75358;SDS011;64046;51.978;5.934;2023-03-01T02:54:07;6.63;;;4.10;;
75358;SDS011;64046;51.978;5.934;2023-03-01T02:56:42;6.55;;;4.35;;
75358;SDS011;64046;51.978;5.934;2023-03-01T02:59:15;5.25;;;3.90;;
75358;SDS011;64046;51.978;5.934;2023-03-01T03:01:49;9.68;;;4.50;;
75358;SDS011;64046;51.978;5.934;2023-03-01T03:04:18;8.60;;;4.30;;
75358;SDS011;64046;51.978;5.934;2023-03-01T03:06:50;7.85;;;4.10;;
75358;SDS011;64046;51.978;5.934;2023-03-01T03:09:19;12.35;;;4.50;;
75358;SDS011;64046;51.978;5.934;2023-03-01T03:11:49;6.70;;;4.30;;
75358;SDS011;64046;51.978;5.934;2023-03-01T03:14:18;6.65;;;4.68;;
75358;SDS011;64046;51.978;5.934;2023-03-01T03:16:51;7.28;;;4.15;;
75358;SDS011;64046;51.978;5.934;2023-03-01T03:19:20;6.22;;;4.43;;
75358;SDS011;64046;51.978;5.934;2023-03-01T03:21:49;7.80;;;4.20;;
75358;SDS011;64046;51.978;5.934;2023-03-01T03:24:18;6.45;;;3.92;;
75358;SDS011;64046;51.978;5.934;2023-03-01T03:26:47;5.40;;;3.60;;
75358;SDS011;64046;51.978;5.934;2023-03-01T03:29:17;6.70;;;4.32;;
75358;SDS011;64046;51.978;5.934;2023-03-01T03:31:46;6.95;;;3.95;;
75358;SDS011;64046;51.978;5.934;2023-03-01T03:34:17;7.07;;;4.05;;
75358;SDS011;64046;51.978;5.934;2023-03-01T03:36:47;5.97;;;3.75;;
75358;SDS011;64046;51.978;5.934;2023-03-01T03:39:16;6.70;;;4.40;;
75358;SDS011;64046;51.978;5.934;2023-03-01T03:41:45;7.38;;;4.22;;
75358;SDS011;64046;51.978;5.934;2023-03-01T03:44:14;6.03;;;4.07;;
75358;SDS011;64046;51.978;5.934;2023-03-01T03:46:44;6.00;;;3.83;;
75358;SDS011;64046;51.978;5.934;2023-03-01T03:49:13;8.25;;;4.25;;
75358;SDS011;64046;51.978;5.934;2023-03-01T03:51:45;6.95;;;3.60;;
75358;SDS011;64046;51.978;5.934;2023-03-01T03:54:14;6.57;;;4.50;;
75358;SDS011;64046;51.978;5.934;2023-03-01T03:56:43;8.05;;;4.55;;
75358;SDS011;64046;51.978;5.934;2023-03-01T03:59:13;6.82;;;4.28;;
75358;SDS011;64046;51.978;5.934;2023-03-01T04:01:42;7.10;;;4.43;;
75358;SDS011;64046;51.978;5.934;2023-03-01T04:04:11;5.93;;;4.43;;
75358;SDS011;64046;51.978;5.934;2023-03-01T04:06:46;5.90;;;3.95;;
75358;SDS011;64046;51.978;5.934;2023-03-01T04:09:15;8.55;;;4.47;;
75358;SDS011;64046;51.978;5.934;2023-03-01T04:11:44;10.35;;;5.18;;
75358;SDS011;64046;51.978;5.934;2023-03-01T04:14:13;7.22;;;5.07;;
75358;SDS011;64046;51.978;5.934;2023-03-01T04:16:42;9.68;;;5.10;;
75358;SDS011;64046;51.978;5.934;2023-03-01T04:19:12;6.70;;;4.55;;
75358;SDS011;64046;51.978;5.934;2023-03-01T04:21:41;8.63;;;4.78;;
75358;SDS011;64046;51.978;5.934;2023-03-01T04:24:13;7.00;;;4.18;;
75358;SDS011;64046;51.978;5.934;2023-03-01T04:26:42;8.52;;;5.03;;
75358;SDS011;64046;51.978;5.934;2023-03-01T04:29:11;6.50;;;4.15;;
75358;SDS011;64046;51.978;5.934;2023-03-01T04:31:40;8.55;;;5.18;;
75358;SDS011;64046;51.978;5.934;2023-03-01T04:34:09;8.43;;;5.25;;
75358;SDS011;64046;51.978;5.934;2023-03-01T04:36:39;6.45;;;3.80;;
75358;SDS011;64046;51.978;5.934;2023-03-01T04:39:09;7.53;;;3.58;;
75358;SDS011;64046;51.978;5.934;2023-03-01T04:41:41;4.95;;;3.55;;
75358;SDS011;64046;51.978;5.934;2023-03-01T04:44:11;6.15;;;4.25;;
75358;SDS011;64046;51.978;5.934;2023-03-01T04:46:40;6.00;;;4.07;;
75358;SDS011;64046;51.978;5.934;2023-03-01T04:49:09;5.93;;;4.00;;
75358;SDS011;64046;51.978;5.934;2023-03-01T04:51:39;6.82;;;3.92;;
75358;SDS011;64046;51.978;5.934;2023-03-01T04:54:09;5.85;;;3.95;;
75358;SDS011;64046;51.978;5.934;2023-03-01T04:56:40;7.38;;;4.00;;
75358;SDS011;64046;51.978;5.934;2023-03-01T04:59:10;5.55;;;3.80;;
75358;SDS011;64046;51.978;5.934;2023-03-01T05:01:39;7.13;;;3.88;;
75358;SDS011;64046;51.978;5.934;2023-03-01T05:04:10;7.50;;;4.65;;
75358;SDS011;64046;51.978;5.934;2023-03-01T05:06:39;6.45;;;3.38;;
75358;SDS011;64046;51.978;5.934;2023-03-01T05:09:08;6.32;;;4.15;;
75358;SDS011;64046;51.978;5.934;2023-03-01T05:11:37;8.85;;;4.70;;
75358;SDS011;64046;51.978;5.934;2023-03-01T05:14:10;6.20;;;4.10;;
75358;SDS011;64046;51.978;5.934;2023-03-01T05:16:39;9.85;;;3.92;;
75358;SDS011;64046;51.978;5.934;2023-03-01T05:19:09;6.40;;;3.67;;
75358;SDS011;64046;51.978;5.934;2023-03-01T05:21:41;6.00;;;3.95;;
75358;SDS011;64046;51.978;5.934;2023-03-01T05:24:23;5.85;;;3.85;;
75358;SDS011;64046;51.978;5.934;2023-03-01T05:26:55;8.63;;;4.50;;
75358;SDS011;64046;51.978;5.934;2023-03-01T05:29:24;8.27;;;4.43;;
75358;SDS011;64046;51.978;5.934;2023-03-01T05:31:55;6.13;;;3.90;;
75358;SDS011;64046;51.978;5.934;2023-03-01T05:34:27;8.35;;;4.50;;
75358;SDS011;64046;51.978;5.934;2023-03-01T05:36:58;5.95;;;3.90;;
75358;SDS011;64046;51.978;5.934;2023-03-01T05:39:28;7.75;;;4.18;;
75358;SDS011;64046;51.978;5.934;2023-03-01T05:42:01;7.97;;;4.15;;
75358;SDS011;64046;51.978;5.934;2023-03-01T05:44:31;5.38;;;3.53;;
75358;SDS011;64046;51.978;5.934;2023-03-01T05:47:00;5.75;;;3.33;;
75358;SDS011;64046;51.978;5.934;2023-03-01T05:49:29;8.32;;;3.83;;
75358;SDS011;64046;51.978;5.934;2023-03-01T05:52:00;5.15;;;3.85;;
75358;SDS011;64046;51.978;5.934;2023-03-01T05:54:29;7.55;;;4.03;;
75358;SDS011;64046;51.978;5.934;2023-03-01T05:57:01;8.65;;;3.97;;
75358;SDS011;64046;51.978;5.934;2023-03-01T05:59:30;6.53;;;4.78;;
75358;SDS011;64046;51.978;5.934;2023-03-01T06:02:01;7.22;;;4.65;;
75358;SDS011;64046;51.978;5.934;2023-03-01T06:04:30;8.10;;;4.70;;
75358;SDS011;64046;51.978;5.934;2023-03-01T06:06:59;8.02;;;4.63;;
75358;SDS011;64046;51.978;5.934;2023-03-01T06:09:28;7.28;;;4.63;;
75358;SDS011;64046;51.978;5.934;2023-03-01T06:11:58;8.18;;;5.13;;
75358;SDS011;64046;51.978;5.934;2023-03-01T06:14:30;6.45;;;4.32;;
75358;SDS011;64046;51.978;5.934;2023-03-01T06:17:00;5.65;;;4.05;;
75358;SDS011;64046;51.978;5.934;2023-03-01T06:19:29;9.93;;;4.85;;
75358;SDS011;64046;51.978;5.934;2023-03-01T06:21:58;9.05;;;5.10;;
75358;SDS011;64046;51.978;5.934;2023-03-01T06:24:27;11.02;;;5.00;;
75358;SDS011;64046;51.978;5.934;2023-03-01T06:26:56;7.20;;;4.25;;
75358;SDS011;64046;51.978;5.934;2023-03-01T06:29:28;7.30;;;4.28;;
75358;SDS011;64046;51.978;5.934;2023-03-01T06:31:58;8.55;;;4.30;;
75358;SDS011;64046;51.978;5.934;2023-03-01T06:34:27;8.35;;;4.30;;
75358;SDS011;64046;51.978;5.934;2023-03-01T06:36:56;9.90;;;4.88;;
75358;SDS011;64046;51.978;5.934;2023-03-01T06:39:27;7.45;;;5.03;;
75358;SDS011;64046;51.978;5.934;2023-03-01T06:41:56;10.18;;;4.55;;
75358;SDS011;64046;51.978;5.934;2023-03-01T06:44:29;10.43;;;4.47;;
75358;SDS011;64046;51.978;5.934;2023-03-01T06:46:58;6.22;;;4.03;;
75358;SDS011;64046;51.978;5.934;2023-03-01T06:49:27;8.25;;;4.82;;
75358;SDS011;64046;51.978;5.934;2023-03-01T06:51:56;8.32;;;4.28;;
75358;SDS011;64046;51.978;5.934;2023-03-01T06:54:26;8.05;;;4.32;;
75358;SDS011;64046;51.978;5.934;2023-03-01T06:56:55;7.28;;;4.63;;
75358;SDS011;64046;51.978;5.934;2023-03-01T06:59:24;15.57;;;7.50;;
75358;SDS011;64046;51.978;5.934;2023-03-01T07:01:56;14.23;;;6.65;;
75358;SDS011;64046;51.978;5.934;2023-03-01T07:04:25;11.30;;;6.13;;
75358;SDS011;64046;51.978;5.934;2023-03-01T07:06:56;7.38;;;4.65;;
75358;SDS011;64046;51.978;5.934;2023-03-01T07:09:26;8.52;;;4.63;;
75358;SDS011;64046;51.978;5.934;2023-03-01T07:11:55;8.43;;;4.60;;
75358;SDS011;64046;51.978;5.934;2023-03-01T07:14:25;10.75;;;4.85;;
75358;SDS011;64046;51.978;5.934;2023-03-01T07:16:57;7.60;;;4.70;;
75358;SDS011;64046;51.978;5.934;2023-03-01T07:19:26;11.32;;;4.97;;
75358;SDS011;64046;51.978;5.934;2023-03-01T07:21:55;9.50;;;4.88;;
75358;SDS011;64046;51.978;5.934;2023-03-01T07:24:25;8.65;;;5.45;;
75358;SDS011;64046;51.978;5.934;2023-03-01T07:26:54;7.20;;;4.93;;
75358;SDS011;64046;51.978;5.934;2023-03-01T07:29:23;10.55;;;4.97;;
75358;SDS011;64046;51.978;5.934;2023-03-01T07:31:57;7.80;;;4.63;;
75358;SDS011;64046;51.978;5.934;2023-03-01T07:34:26;9.45;;;4.30;;
75358;SDS011;64046;51.978;5.934;2023-03-01T07:36:55;8.75;;;4.60;;
75358;SDS011;64046;51.978;5.934;2023-03-01T07:39:24;8.82;;;5.18;;
75358;SDS011;64046;51.978;5.934;2023-03-01T07:41:54;7.93;;;4.55;;
75358;SDS011;64046;51.978;5.934;2023-03-01T07:44:23;7.90;;;4.40;;
75358;SDS011;64046;51.978;5.934;2023-03-01T07:46:52;6.97;;;4.40;;
75358;SDS011;64046;51.978;5.934;2023-03-01T07:49:26;7.40;;;4.10;;
75358;SDS011;64046;51.978;5.934;2023-03-01T07:51:56;6.50;;;4.43;;
75358;SDS011;64046;51.978;5.934;2023-03-01T07:54:25;6.63;;;4.50;;
75358;SDS011;64046;51.978;5.934;2023-03-01T07:56:56;7.82;;;4.60;;
75358;SDS011;64046;51.978;5.934;2023-03-01T07:59:25;6.28;;;4.47;;
75358;SDS011;64046;51.978;5.934;2023-03-01T08:01:55;7.00;;;4.75;;
75358;SDS011;64046;51.978;5.934;2023-03-01T08:04:27;7.00;;;4.30;;
75358;SDS011;64046;51.978;5.934;2023-03-01T08:06:57;5.82;;;3.95;;
75358;SDS011;64046;51.978;5.934;2023-03-01T08:09:26;6.03;;;4.18;;
75358;SDS011;64046;51.978;5.934;2023-03-01T08:11:56;10.50;;;4.97;;
75358;SDS011;64046;51.978;5.934;2023-03-01T08:14:27;6.13;;;3.90;;
75358;SDS011;64046;51.978;5.934;2023-03-01T08:16:56;9.05;;;4.85;;
75358;SDS011;64046;51.978;5.934;2023-03-01T08:19:28;8.10;;;4.40;;
75358;SDS011;64046;51.978;5.934;2023-03-01T08:21:59;10.73;;;5.65;;
75358;SDS011;64046;51.978;5.934;2023-03-01T08:24:30;6.28;;;4.45;;
75358;SDS011;64046;51.978;5.934;2023-03-01T08:26:59;6.95;;;4.60;;
75358;SDS011;64046;51.978;5.934;2023-03-01T08:29:30;7.70;;;4.38;;
75358;SDS011;64046;51.978;5.934;2023-03-01T08:31:59;8.35;;;4.85;;
75358;SDS011;64046;51.978;5.934;2023-03-01T08:34:31;10.02;;;4.93;;
75358;SDS011;64046;51.978;5.934;2023-03-01T08:37:01;8.45;;;4.00;;
75358;SDS011;64046;51.978;5.934;2023-03-01T08:39:30;8.50;;;4.78;;
75358;SDS011;64046;51.978;5.934;2023-03-01T08:42:00;7.15;;;4.50;;
75358;SDS011;64046;51.978;5.934;2023-03-01T08:44:29;6.90;;;4.38;;
75358;SDS011;64046;51.978;5.934;2023-03-01T08:46:59;6.18;;;4.35;;
75358;SDS011;64046;51.978;5.934;2023-03-01T08:49:33;12.45;;;4.72;;
75358;SDS011;64046;51.978;5.934;2023-03-01T08:52:02;8.95;;;4.57;;
75358;SDS011;64046;51.978;5.934;2023-03-01T08:54:31;9.07;;;4.40;;
75358;SDS011;64046;51.978;5.934;2023-03-01T08:57:01;7.15;;;4.00;;
75358;SDS011;64046;51.978;5.934;2023-03-01T08:59:31;7.53;;;4.95;;
75358;SDS011;64046;51.978;5.934;2023-03-01T09:02:03;9.10;;;4.53;;
75358;SDS011;64046;51.978;5.934;2023-03-01T09:04:34;6.30;;;3.67;;
75358;SDS011;64046;51.978;5.934;2023-03-01T09:07:04;5.60;;;4.10;;
75358;SDS011;64046;51.978;5.934;2023-03-01T09:09:33;9.70;;;4.75;;
75358;SDS011;64046;51.978;5.934;2023-03-01T09:12:02;7.47;;;4.35;;
75358;SDS011;64046;51.978;5.934;2023-03-01T09:14:32;10.25;;;4.35;;
75358;SDS011;64046;51.978;5.934;2023-03-01T09:17:03;9.80;;;4.72;;
75358;SDS011;64046;51.978;5.934;2023-03-01T09:19:34;10.30;;;4.50;;
75358;SDS011;64046;51.978;5.934;2023-03-01T09:22:04;5.88;;;4.13;;
75358;SDS011;64046;51.978;5.934;2023-03-01T09:24:33;7.63;;;4.18;;
75358;SDS011;64046;51.978;5.934;2023-03-01T09:27:02;7.25;;;4.30;;
75358;SDS011;64046;51.978;5.934;2023-03-01T09:29:34;7.22;;;3.80;;
75358;SDS011;64046;51.978;5.934;2023-03-01T09:32:04;6.30;;;4.28;;
75358;SDS011;64046;51.978;5.934;2023-03-01T09:34:36;6.68;;;4.00;;
75358;SDS011;64046;51.978;5.934;2023-03-01T09:37:27;11.70;;;4.25;;
75358;SDS011;64046;51.978;5.934;2023-03-01T09:39:56;7.28;;;4.43;;
75358;SDS011;64046;51.978;5.934;2023-03-01T09:42:25;9.60;;;4.25;;
75358;SDS011;64046;51.978;5.934;2023-03-01T09:44:58;7.38;;;4.68;;
75358;SDS011;64046;51.978;5.934;2023-03-01T09:47:31;6.40;;;4.07;;
75358;SDS011;64046;51.978;5.934;2023-03-01T09:50:06;6.78;;;4.60;;
75358;SDS011;64046;51.978;5.934;2023-03-01T09:52:40;9.18;;;5.32;;
75358;SDS011;64046;51.978;5.934;2023-03-01T09:55:12;8.07;;;5.13;;
75358;SDS011;64046;51.978;5.934;2023-03-01T09:57:45;11.75;;;5.05;;
75358;SDS011;64046;51.978;5.934;2023-03-01T10:00:28;9.90;;;4.95;;
75358;SDS011;64046;51.978;5.934;2023-03-01T10:03:08;7.72;;;4.65;;
75358;SDS011;64046;51.978;5.934;2023-03-01T10:05:52;10.88;;;5.20;;
75358;SDS011;64046;51.978;5.934;2023-03-01T10:08:34;8.82;;;5.10;;
75358;SDS011;64046;51.978;5.934;2023-03-01T10:11:17;10.10;;;6.25;;
75358;SDS011;64046;51.978;5.934;2023-03-01T10:13:50;7.70;;;5.40;;
75358;SDS011;64046;51.978;5.934;2023-03-01T10:16:28;6.93;;;4.90;;
75358;SDS011;64046;51.978;5.934;2023-03-01T10:19:10;10.05;;;5.55;;
75358;SDS011;64046;51.978;5.934;2023-03-01T10:21:46;9.45;;;5.57;;
75358;SDS011;64046;51.978;5.934;2023-03-01T10:24:19;9.38;;;4.95;;
75358;SDS011;64046;51.978;5.934;2023-03-01T10:26:52;7.75;;;4.60;;
75358;SDS011;64046;51.978;5.934;2023-03-01T10:29:26;8.57;;;4.97;;
75358;SDS011;64046;51.978;5.934;2023-03-01T10:32:00;7.50;;;4.80;;
75358;SDS011;64046;51.978;5.934;2023-03-01T10:34:33;9.27;;;4.97;;
75358;SDS011;64046;51.978;5.934;2023-03-01T10:37:12;7.25;;;4.72;;
75358;SDS011;64046;51.978;5.934;2023-03-01T10:39:57;6.00;;;4.00;;
75358;SDS011;64046;51.978;5.934;2023-03-01T10:42:32;8.35;;;4.65;;
75358;SDS011;64046;51.978;5.934;2023-03-01T10:45:16;10.23;;;5.03;;
75358;SDS011;64046;51.978;5.934;2023-03-01T10:48:02;7.13;;;3.97;;
75358;SDS011;64046;51.978;5.934;2023-03-01T10:50:33;9.50;;;4.70;;
75358;SDS011;64046;51.978;5.934;2023-03-01T10:53:15;8.13;;;4.50;;
75358;SDS011;64046;51.978;5.934;2023-03-01T10:55:55;7.10;;;4.13;;
75358;SDS011;64046;51.978;5.934;2023-03-01T10:58:27;6.63;;;4.65;;
75358;SDS011;64046;51.978;5.934;2023-03-01T11:00:58;7.75;;;5.07;;
75358;SDS011;64046;51.978;5.934;2023-03-01T11:03:29;7.38;;;4.47;;
75358;SDS011;64046;51.978;5.934;2023-03-01T11:06:01;6.07;;;4.03;;
75358;SDS011;64046;51.978;5.934;2023-03-01T11:08:38;7.70;;;4.22;;
75358;SDS011;64046;51.978;5.934;2023-03-01T11:11:22;6.13;;;3.80;;
75358;SDS011;64046;51.978;5.934;2023-03-01T11:13:55;7.70;;;4.00;;
75358;SDS011;64046;51.978;5.934;2023-03-01T11:16:28;8.57;;;4.40;;
75358;SDS011;64046;51.978;5.934;2023-03-01T11:21:52;9.20;;;4.28;;
75358;SDS011;64046;51.978;5.934;2023-03-01T11:24:32;9.13;;;4.78;;
75358;SDS011;64046;51.978;5.934;2023-03-01T11:27:08;5.88;;;3.90;;
75358;SDS011;64046;51.978;5.934;2023-03-01T11:29:45;10.02;;;5.43;;
75358;SDS011;64046;51.978;5.934;2023-03-01T11:32:19;6.85;;;4.50;;
75358;SDS011;64046;51.978;5.934;2023-03-01T11:34:55;5.72;;;4.43;;
75358;SDS011;64046;51.978;5.934;2023-03-01T11:37:32;8.02;;;4.20;;
75358;SDS011;64046;51.978;5.934;2023-03-01T11:40:10;10.23;;;4.47;;
75358;SDS011;64046;51.978;5.934;2023-03-01T11:42:47;8.60;;;4.43;;
75358;SDS011;64046;51.978;5.934;2023-03-01T11:45:23;10.35;;;4.78;;
75358;SDS011;64046;51.978;5.934;2023-03-01T11:47:59;5.72;;;3.72;;
75358;SDS011;64046;51.978;5.934;2023-03-01T11:50:38;7.15;;;4.20;;
75358;SDS011;64046;51.978;5.934;2023-03-01T11:53:18;7.90;;;4.55;;
75358;SDS011;64046;51.978;5.934;2023-03-01T11:56:16;6.32;;;3.88;;
75358;SDS011;64046;51.978;5.934;2023-03-01T11:59:03;8.52;;;4.45;;
75358;SDS011;64046;51.978;5.934;2023-03-01T12:01:54;6.97;;;4.05;;
75358;SDS011;64046;51.978;5.934;2023-03-01T12:05:00;9.82;;;4.35;;
75358;SDS011;64046;51.978;5.934;2023-03-01T12:07:42;7.45;;;4.55;;
75358;SDS011;64046;51.978;5.934;2023-03-01T12:10:22;6.53;;;4.10;;
75358;SDS011;64046;51.978;5.934;2023-03-01T12:15:55;6.70;;;3.75;;
75358;SDS011;64046;51.978;5.934;2023-03-01T12:18:51;7.63;;;4.07;;
75358;SDS011;64046;51.978;5.934;2023-03-01T12:21:35;5.72;;;4.22;;
75358;SDS011;64046;51.978;5.934;2023-03-01T12:24:24;6.93;;;4.40;;
75358;SDS011;64046;51.978;5.934;2023-03-01T12:27:15;5.32;;;4.07;;
75358;SDS011;64046;51.978;5.934;2023-03-01T12:30:04;6.13;;;3.88;;
75358;SDS011;64046;51.978;5.934;2023-03-01T12:32:47;6.25;;;4.10;;
75358;SDS011;64046;51.978;5.934;2023-03-01T12:35:29;7.93;;;3.95;;
75358;SDS011;64046;51.978;5.934;2023-03-01T12:38:17;7.13;;;4.28;;
75358;SDS011;64046;51.978;5.934;2023-03-01T12:41:01;5.70;;;4.38;;
75358;SDS011;64046;51.978;5.934;2023-03-01T12:43:44;6.47;;;4.18;;
75358;SDS011;64046;51.978;5.934;2023-03-01T12:46:25;8.98;;;4.05;;
75358;SDS011;64046;51.978;5.934;2023-03-01T12:49:04;6.03;;;4.18;;
75358;SDS011;64046;51.978;5.934;2023-03-01T12:51:39;6.28;;;3.63;;
75358;SDS011;64046;51.978;5.934;2023-03-01T12:54:14;5.72;;;3.75;;
75358;SDS011;64046;51.978;5.934;2023-03-01T12:56:48;5.32;;;3.30;;
75358;SDS011;64046;51.978;5.934;2023-03-01T12:59:19;5.55;;;3.58;;
75358;SDS011;64046;51.978;5.934;2023-03-01T13:02:00;7.85;;;4.50;;
75358;SDS011;64046;51.978;5.934;2023-03-01T13:04:46;5.95;;;3.78;;
75358;SDS011;64046;51.978;5.934;2023-03-01T13:07:28;6.75;;;4.30;;
75358;SDS011;64046;51.978;5.934;2023-03-01T13:10:06;5.43;;;3.45;;
75358;SDS011;64046;51.978;5.934;2023-03-01T13:12:46;7.93;;;3.55;;
75358;SDS011;64046;51.978;5.934;2023-03-01T13:15:27;5.40;;;3.60;;
75358;SDS011;64046;51.978;5.934;2023-03-01T13:18:00;7.65;;;3.95;;
75358;SDS011;64046;51.978;5.934;2023-03-01T13:20:33;8.27;;;3.78;;
75358;SDS011;64046;51.978;5.934;2023-03-01T13:23:13;7.38;;;4.18;;
75358;SDS011;64046;51.978;5.934;2023-03-01T13:26:08;7.85;;;3.92;;
75358;SDS011;64046;51.978;5.934;2023-03-01T13:28:49;5.80;;;4.00;;
75358;SDS011;64046;51.978;5.934;2023-03-01T13:34:46;6.50;;;3.22;;
75358;SDS011;64046;51.978;5.934;2023-03-01T13:37:23;5.70;;;3.78;;
75358;SDS011;64046;51.978;5.934;2023-03-01T13:39:58;6.57;;;3.45;;
75358;SDS011;64046;51.978;5.934;2023-03-01T13:42:37;5.28;;;3.38;;
75358;SDS011;64046;51.978;5.934;2023-03-01T13:45:22;6.68;;;3.63;;
75358;SDS011;64046;51.978;5.934;2023-03-01T13:48:02;7.30;;;3.80;;
75358;SDS011;64046;51.978;5.934;2023-03-01T13:50:45;5.68;;;3.78;;
75358;SDS011;64046;51.978;5.934;2023-03-01T13:53:18;8.40;;;3.75;;
75358;SDS011;64046;51.978;5.934;2023-03-01T13:55:50;6.75;;;3.58;;
75358;SDS011;64046;51.978;5.934;2023-03-01T13:58:24;5.53;;;3.45;;
75358;SDS011;64046;51.978;5.934;2023-03-01T14:00:55;6.85;;;4.30;;
75358;SDS011;64046;51.978;5.934;2023-03-01T14:03:27;5.97;;;3.30;;
75358;SDS011;64046;51.978;5.934;2023-03-01T14:06:02;5.13;;;3.40;;
75358;SDS011;64046;51.978;5.934;2023-03-01T14:08:35;6.10;;;3.60;;
75358;SDS011;64046;51.978;5.934;2023-03-01T14:14:14;5.95;;;3.80;;
75358;SDS011;64046;51.978;5.934;2023-03-01T14:16:58;5.85;;;3.60;;
75358;SDS011;64046;51.978;5.934;2023-03-01T14:19:36;8.15;;;4.65;;
75358;SDS011;64046;51.978;5.934;2023-03-01T14:22:15;8.07;;;4.68;;
75358;SDS011;64046;51.978;5.934;2023-03-01T14:24:49;9.73;;;4.10;;
75358;SDS011;64046;51.978;5.934;2023-03-01T14:27:20;7.00;;;3.72;;
75358;SDS011;64046;51.978;5.934;2023-03-01T14:29:57;6.13;;;3.70;;
75358;SDS011;64046;51.978;5.934;2023-03-01T14:32:28;7.35;;;3.92;;
75358;SDS011;64046;51.978;5.934;2023-03-01T14:35:00;7.25;;;4.40;;
75358;SDS011;64046;51.978;5.934;2023-03-01T14:37:33;6.50;;;4.25;;
75358;SDS011;64046;51.978;5.934;2023-03-01T14:40:03;5.28;;;3.67;;
75358;SDS011;64046;51.978;5.934;2023-03-01T14:42:35;6.65;;;4.07;;
75358;SDS011;64046;51.978;5.934;2023-03-01T14:45:05;6.18;;;3.85;;
75358;SDS011;64046;51.978;5.934;2023-03-01T14:47:36;8.45;;;4.32;;
75358;SDS011;64046;51.978;5.934;2023-03-01T14:50:07;8.13;;;4.18;;
75358;SDS011;64046;51.978;5.934;2023-03-01T14:52:41;6.07;;;3.50;;
75358;SDS011;64046;51.978;5.934;2023-03-01T14:55:15;5.63;;;3.80;;
75358;SDS011;64046;51.978;5.934;2023-03-01T14:57:47;7.75;;;4.47;;
75358;SDS011;64046;51.978;5.934;2023-03-01T15:00:19;5.53;;;3.63;;
75358;SDS011;64046;51.978;5.934;2023-03-01T15:02:51;5.90;;;3.67;;
75358;SDS011;64046;51.978;5.934;2023-03-01T15:05:24;6.18;;;3.75;;
75358;SDS011;64046;51.978;5.934;2023-03-01T15:07:59;6.45;;;3.40;;
75358;SDS011;64046;51.978;5.934;2023-03-01T15:10:31;5.05;;;3.45;;
75358;SDS011;64046;51.978;5.934;2023-03-01T15:13:11;5.45;;;3.63;;
75358;SDS011;64046;51.978;5.934;2023-03-01T15:15:41;8.60;;;3.70;;
75358;SDS011;64046;51.978;5.934;2023-03-01T15:18:13;8.77;;;3.78;;
75358;SDS011;64046;51.978;5.934;2023-03-01T15:20:46;9.18;;;4.07;;
75358;SDS011;64046;51.978;5.934;2023-03-01T15:23:21;4.85;;;3.50;;
75358;SDS011;64046;51.978;5.934;2023-03-01T15:25:53;4.65;;;3.55;;
75358;SDS011;64046;51.978;5.934;2023-03-01T15:28:25;5.78;;;3.55;;
75358;SDS011;64046;51.978;5.934;2023-03-01T15:30:57;4.45;;;3.03;;
75358;SDS011;64046;51.978;5.934;2023-03-01T15:33:32;9.98;;;4.68;;